Sur, Oman
Current Conditions -  °F | °C
As of 1:50 PM on Sunday 21 Dec 2014 (Local Time) from OOMS Reporting Station
Few Clouds Few Clouds  
Wind Chill: 77°   Ceiling: Unl
Heat Index: 79°   Visibility: 6mi
Dew Point: 66°   Wind: 12mph
Humidity: 69%   Direction: 20°NNE
Pressure: 29.91"   Gusts: NA
Location:  22.57°N, 59.55°E
Report Text: OOMS 210950Z 02010KT 340V050 9999 FEW020 25/19 Q1013 NOSIG
Loading
Personal Weather Stations






























Interactive Weather Map New forecast layout! Learn more

10-Day Weather Forecast

Advertisements
Track Severe Weather on mobile